createdAt,value
2022-11-26T00:00:52.520Z,42.17
2022-11-26T00:03:20.196Z,32.60
2022-11-26T00:05:51.350Z,36.38
2022-11-26T00:08:32.878Z,36.47
2022-11-26T00:11:00.349Z,33.17
2022-11-26T00:13:29.875Z,36.88
2022-11-26T00:15:57.708Z,43.42
2022-11-26T00:18:26.482Z,48.97
2022-11-26T00:21:00.527Z,40.60
2022-11-26T00:23:28.617Z,40.72
2022-11-26T00:25:58.223Z,37.80
2022-11-26T00:28:31.740Z,33.22
2022-11-26T00:31:00.927Z,35.00
2022-11-26T00:33:29.174Z,33.28
2022-11-26T00:35:59.194Z,45.13
2022-11-26T00:38:26.339Z,28.90
2022-11-26T00:40:53.155Z,32.47
2022-11-26T00:43:19.849Z,38.03
2022-11-26T00:45:47.895Z,42.00
2022-11-26T00:48:15.460Z,43.92
2022-11-26T00:50:50.771Z,35.78
2022-11-26T00:53:22.368Z,32.05
2022-11-26T00:55:50.458Z,34.85
2022-11-26T00:58:29.177Z,44.20
2022-11-26T01:00:58.308Z,38.10
2022-11-26T01:03:25.903Z,40.45
2022-11-26T01:05:55.570Z,36.78
2022-11-26T01:08:31.791Z,29.58
2022-11-26T01:11:00.622Z,30.52
2022-11-26T01:13:28.439Z,37.25
2022-11-26T01:15:57.089Z,36.50
2022-11-26T01:18:24.449Z,40.40
2022-11-26T01:20:51.750Z,38.15
2022-11-26T01:23:19.879Z,38.30
2022-11-26T01:25:47.797Z,45.42
2022-11-26T01:28:17.817Z,44.60
2022-11-26T01:30:44.909Z,42.78
2022-11-26T01:33:11.584Z,43.35
2022-11-26T01:35:38.372Z,46.28
2022-11-26T01:38:05.574Z,31.50
2022-11-26T01:40:50.327Z,32.88
2022-11-26T01:43:27.892Z,32.75
2022-11-26T01:45:56.483Z,33.28
2022-11-26T01:48:30.703Z,38.88
2022-11-26T01:51:00.327Z,39.70
2022-11-26T01:53:29.994Z,43.85
2022-11-26T01:56:00.679Z,31.38
2022-11-26T01:58:38.289Z,45.00
2022-11-26T02:01:06.704Z,37.15
2022-11-26T02:03:40.798Z,41.75
2022-11-26T02:06:14.158Z,37.47
2022-11-26T02:08:41.546Z,45.83
2022-11-26T02:11:20.321Z,45.72
2022-11-26T02:13:49.640Z,37.42
2022-11-26T02:16:23.440Z,43.00
2022-11-26T02:19:19.687Z,38.20
2022-11-26T02:21:55.482Z,42.75
2022-11-26T02:24:53.844Z,47.22
2022-11-26T02:27:47.340Z,36.38
2022-11-26T02:30:16.408Z,31.38
2022-11-26T02:32:59.229Z,39.33
2022-11-26T02:35:46.014Z,42.25
2022-11-26T02:38:25.397Z,29.92
2022-11-26T02:40:52.979Z,41.58
2022-11-26T02:43:20.575Z,37.38
2022-11-26T02:45:52.451Z,38.00
2022-11-26T02:48:25.505Z,32.60
2022-11-26T02:50:59.269Z,32.00
2022-11-26T02:53:29.285Z,44.10
2022-11-26T02:56:24.620Z,42.15
2022-11-26T02:58:53.742Z,34.22
2022-11-26T03:01:31.769Z,51.20
2022-11-26T03:04:05.660Z,38.05
2022-11-26T03:06:34.272Z,31.35
2022-11-26T03:09:01.193Z,39.90
2022-11-26T03:11:28.409Z,39.50
2022-11-26T03:13:55.296Z,36.58
2022-11-26T03:16:22.087Z,37.47
2022-11-26T03:18:48.864Z,42.53
2022-11-26T03:21:15.607Z,52.67
2022-11-26T03:23:42.247Z,43.92
2022-11-26T03:26:09.127Z,36.30
2022-11-26T03:28:35.894Z,35.83
2022-11-26T03:31:02.655Z,43.42
2022-11-26T03:33:29.464Z,55.72
2022-11-26T03:35:56.208Z,42.72
2022-11-26T03:38:22.948Z,35.63
2022-11-26T03:41:00.242Z,59.38
2022-11-26T03:43:27.639Z,42.15
2022-11-26T03:45:54.381Z,46.50
2022-11-26T03:48:21.116Z,49.03
2022-11-26T03:50:47.768Z,54.60
2022-11-26T03:53:14.459Z,46.17
2022-11-26T03:55:41.139Z,42.20
2022-11-26T03:58:07.809Z,62.63
2022-11-26T04:00:34.482Z,54.30
2022-11-26T04:03:01.234Z,51.83
2022-11-26T04:05:27.943Z,47.95
2022-11-26T04:07:54.793Z,55.08
2022-11-26T04:10:21.549Z,47.97
2022-11-26T04:12:48.226Z,35.33
2022-11-26T04:15:15.012Z,49.00
2022-11-26T04:17:41.677Z,45.92
2022-11-26T04:20:08.965Z,58.30
2022-11-26T04:22:35.760Z,53.25
2022-11-26T04:25:02.586Z,57.05
2022-11-26T04:27:29.294Z,53.83
2022-11-26T04:29:56.073Z,60.80
2022-11-26T04:32:22.928Z,49.00
2022-11-26T04:34:49.620Z,47.28
2022-11-26T04:37:16.313Z,49.63
2022-11-26T04:39:43.366Z,50.30
2022-11-26T04:42:10.102Z,43.15
2022-11-26T04:44:37.110Z,53.05
2022-11-26T04:47:04.078Z,42.03
2022-11-26T04:49:30.938Z,49.60
2022-11-26T04:51:57.618Z,41.13
2022-11-26T04:54:24.358Z,54.58
2022-11-26T04:56:51.014Z,48.00
2022-11-26T04:59:17.663Z,48.38
2022-11-26T05:01:44.483Z,46.38
2022-11-26T05:04:11.213Z,48.15
2022-11-26T05:06:37.906Z,41.90
2022-11-26T05:09:04.704Z,47.83
2022-11-26T05:11:31.534Z,45.92
2022-11-26T05:13:58.257Z,42.80
2022-11-26T05:16:25.127Z,45.75
2022-11-26T05:18:52.028Z,35.55
2022-11-26T05:21:18.712Z,43.65
2022-11-26T05:23:45.389Z,48.10
2022-11-26T05:26:12.167Z,46.20
2022-11-26T05:28:38.931Z,39.95
2022-11-26T05:31:06.218Z,46.88
2022-11-26T05:33:32.865Z,35.25
2022-11-26T05:35:59.939Z,43.85
2022-11-26T05:38:26.837Z,39.10
2022-11-26T05:40:53.497Z,43.95
2022-11-26T05:43:20.189Z,34.08
2022-11-26T05:45:46.985Z,44.03
2022-11-26T05:48:13.800Z,44.60
2022-11-26T05:50:40.616Z,39.22
2022-11-26T05:53:07.502Z,39.20
2022-11-26T05:55:34.243Z,30.08
2022-11-26T05:58:00.973Z,49.65
2022-11-26T06:00:27.813Z,39.88
2022-11-26T06:02:54.661Z,37.15
2022-11-26T06:05:21.892Z,46.50
2022-11-26T06:07:48.623Z,48.80
2022-11-26T06:10:15.329Z,44.20
2022-11-26T06:12:42.046Z,37.65
2022-11-26T06:15:09.331Z,47.83
2022-11-26T06:17:35.991Z,45.20
2022-11-26T06:20:02.841Z,45.42
2022-11-26T06:22:29.576Z,51.90
2022-11-26T06:24:56.270Z,40.70
2022-11-26T06:27:22.974Z,38.85
2022-11-26T06:29:49.597Z,43.95
2022-11-26T06:32:16.270Z,46.30
2022-11-26T06:34:44.271Z,44.85
2022-11-26T06:37:11.363Z,34.45
2022-11-26T06:39:38.004Z,44.70
2022-11-26T06:42:04.698Z,41.83
2022-11-26T06:44:31.427Z,41.83
2022-11-26T06:46:58.141Z,53.70
2022-11-26T06:49:24.895Z,45.53
2022-11-26T06:51:52.827Z,50.75
2022-11-26T06:54:19.776Z,49.90
2022-11-26T06:56:46.872Z,51.78
2022-11-26T06:59:13.816Z,48.78
2022-11-26T07:01:40.665Z,46.47
2022-11-26T07:04:07.454Z,51.25
2022-11-26T07:06:34.204Z,44.33
2022-11-26T07:09:04.922Z,42.10
2022-11-26T07:11:32.225Z,44.33
2022-11-26T07:13:59.204Z,48.35
2022-11-26T07:16:26.074Z,46.58
2022-11-26T07:19:00.832Z,47.05
2022-11-26T07:21:29.632Z,46.30
2022-11-26T07:23:56.426Z,55.22
2022-11-26T07:26:24.132Z,48.97
2022-11-26T07:28:51.017Z,43.30
2022-11-26T07:31:21.399Z,54.78
2022-11-26T07:33:48.898Z,55.30
2022-11-26T07:36:26.910Z,54.83
2022-11-26T07:38:55.144Z,46.90
2022-11-26T07:41:22.097Z,57.53
2022-11-26T07:43:49.763Z,56.40
2022-11-26T07:46:20.705Z,52.70
2022-11-26T07:48:47.768Z,57.28
2022-11-26T07:51:23.469Z,55.47
2022-11-26T07:53:50.879Z,54.65
2022-11-26T07:56:17.790Z,59.80
2022-11-26T07:58:44.841Z,51.80
2022-11-26T08:01:17.137Z,59.83
2022-11-26T08:03:46.195Z,64.28
2022-11-26T08:06:16.027Z,59.55
2022-11-26T08:08:43.081Z,57.08
2022-11-26T08:11:21.257Z,62.50
2022-11-26T08:13:48.969Z,60.35
2022-11-26T08:16:16.159Z,65.10
2022-11-26T08:18:42.924Z,55.38
2022-11-26T08:21:10.086Z,65.25
2022-11-26T08:23:37.397Z,67.55
2022-11-26T08:26:32.710Z,60.42
2022-11-26T08:31:24.756Z,63.15
2022-11-26T08:33:51.703Z,63.50
2022-11-26T08:36:18.413Z,70.65
2022-11-26T08:38:45.109Z,66.18
2022-11-26T08:41:13.101Z,68.07
2022-11-26T08:44:05.142Z,72.90
2022-11-26T08:46:27.444Z,69.00
2022-11-26T08:48:57.645Z,69.32
2022-11-26T08:51:25.089Z,65.80
2022-11-26T08:53:51.785Z,60.75
2022-11-26T08:56:18.491Z,67.93
2022-11-26T08:58:45.649Z,69.35
2022-11-26T09:01:15.829Z,63.88
2022-11-26T09:03:42.884Z,57.15
2022-11-26T09:06:10.203Z,68.22
2022-11-26T09:08:57.197Z,65.97
2022-11-26T09:11:25.214Z,64.40
2022-11-26T09:13:53.365Z,67.43
2022-11-26T09:16:23.253Z,70.28
2022-11-26T09:18:51.096Z,66.85
2022-11-26T09:21:18.722Z,65.60
2022-11-26T09:23:45.401Z,78.55
2022-11-26T09:26:12.420Z,71.38
2022-11-26T09:28:39.542Z,70.53
2022-11-26T09:31:06.696Z,67.32
2022-11-26T09:33:33.565Z,68.13
2022-11-26T09:36:08.688Z,55.03
2022-11-26T09:38:35.882Z,67.13
2022-11-26T09:41:37.707Z,52.83
2022-11-26T09:44:07.574Z,51.35
2022-11-26T09:47:19.148Z,61.28
2022-11-26T09:49:57.098Z,56.28
2022-11-26T09:52:28.601Z,55.28
2022-11-26T09:55:11.799Z,58.47
2022-11-26T09:57:42.973Z,45.08
2022-11-26T10:00:35.614Z,48.67
2022-11-26T10:03:10.583Z,51.28
2022-11-26T10:05:42.264Z,45.75
2022-11-26T10:11:01.198Z,57.13
2022-11-26T10:14:28.485Z,42.60
2022-11-26T10:17:19.692Z,42.30
2022-11-26T10:20:28.673Z,44.10
2022-11-26T10:26:01.166Z,52.92
2022-11-26T10:28:33.667Z,39.65
2022-11-26T10:31:27.089Z,43.92
2022-11-26T10:34:03.825Z,43.42
2022-11-26T10:36:37.581Z,49.35
2022-11-26T10:39:05.177Z,37.55
2022-11-26T10:41:35.488Z,37.92
2022-11-26T10:44:40.791Z,39.78
2022-11-26T10:47:27.063Z,35.75
2022-11-26T10:50:07.300Z,52.67
2022-11-26T10:52:46.734Z,39.30
2022-11-26T10:55:39.436Z,37.75
2022-11-26T10:58:14.929Z,38.42
2022-11-26T11:01:01.207Z,36.08
2022-11-26T11:06:40.397Z,44.65
2022-11-26T11:09:31.631Z,32.53
2022-11-26T11:12:15.745Z,41.25
2022-11-26T11:14:45.514Z,35.60
2022-11-26T11:17:27.536Z,37.92
2022-11-26T11:19:54.542Z,28.70
2022-11-26T11:22:22.098Z,42.30
2022-11-26T11:24:49.286Z,31.85
2022-11-26T11:27:26.288Z,28.00
2022-11-26T11:29:53.227Z,31.75
2022-11-26T11:32:38.263Z,26.48
2022-11-26T11:35:20.449Z,32.92
2022-11-26T11:37:49.823Z,30.25
2022-11-26T11:40:23.394Z,32.72
2022-11-26T11:42:52.680Z,26.60
2022-11-26T11:45:28.133Z,33.42
2022-11-26T11:47:58.086Z,33.88
2022-11-26T11:50:36.118Z,26.17
2022-11-26T11:53:24.405Z,27.08
2022-11-26T11:56:14.733Z,25.92
2022-11-26T11:59:00.399Z,24.45
2022-11-26T12:02:04.304Z,27.63
2022-11-26T12:05:02.052Z,20.02
2022-11-26T12:07:47.829Z,30.50
2022-11-26T12:10:58.223Z,29.27
2022-11-26T12:13:26.856Z,24.35
2022-11-26T12:16:05.838Z,28.58
2022-11-26T12:19:02.453Z,24.85
2022-11-26T12:21:42.907Z,14.85
2022-11-26T12:24:13.809Z,27.40
2022-11-26T12:26:52.475Z,24.63
2022-11-26T12:29:33.547Z,24.98
2022-11-26T12:32:14.356Z,18.20
2022-11-26T12:34:46.226Z,18.92
2022-11-26T12:37:36.145Z,22.15
2022-11-26T12:40:10.245Z,28.13
2022-11-26T12:42:59.874Z,22.75
2022-11-26T12:45:51.109Z,21.33
2022-11-26T12:48:49.854Z,19.23
2022-11-26T12:51:36.940Z,20.25
2022-11-26T12:54:23.738Z,15.40
2022-11-26T12:56:59.312Z,20.13
2022-11-26T12:59:37.972Z,21.50
2022-11-26T13:02:31.273Z,17.48
2022-11-26T13:04:59.449Z,27.23
2022-11-26T13:08:03.946Z,22.13
2022-11-26T13:10:43.868Z,22.85
2022-11-26T13:13:35.755Z,18.63
2022-11-26T13:18:50.491Z,18.15
2022-11-26T13:21:17.569Z,19.40
2022-11-26T13:24:22.819Z,28.90
2022-11-26T13:27:05.410Z,21.38
2022-11-26T13:29:55.127Z,18.35
2022-11-26T13:32:45.647Z,18.75
2022-11-26T13:35:47.890Z,20.30
2022-11-26T13:38:19.669Z,22.63
2022-11-26T13:41:17.893Z,19.83
2022-11-26T13:44:24.164Z,22.75
2022-11-26T13:47:01.562Z,16.60
2022-11-26T13:49:48.296Z,22.95
2022-11-26T13:52:18.844Z,22.13
2022-11-26T13:55:01.748Z,21.67
2022-11-26T13:57:39.365Z,21.27
2022-11-26T14:00:07.468Z,18.60
2022-11-26T14:02:34.443Z,16.83
2022-11-26T14:05:09.942Z,20.07
2022-11-26T14:07:37.013Z,18.92
2022-11-26T14:10:07.732Z,19.90
2022-11-26T14:13:02.747Z,13.93
2022-11-26T14:15:42.174Z,23.05
2022-11-26T14:18:14.121Z,23.38
2022-11-26T14:21:03.872Z,17.85
2022-11-26T14:23:47.329Z,18.88
2022-11-26T14:26:34.373Z,26.30
2022-11-26T14:29:07.138Z,22.52
2022-11-26T14:31:35.876Z,22.13
2022-11-26T14:34:11.061Z,30.60
2022-11-26T14:37:01.011Z,24.17
2022-11-26T14:39:28.745Z,21.75
2022-11-26T14:42:02.212Z,22.90
2022-11-26T14:44:32.604Z,18.52
2022-11-26T14:47:01.845Z,22.33
2022-11-26T14:49:40.661Z,33.30
2022-11-26T14:52:23.625Z,29.63
2022-11-26T14:54:57.646Z,15.80
2022-11-26T14:57:48.252Z,20.42
2022-11-26T15:00:15.020Z,20.15
2022-11-26T15:02:45.538Z,18.23
2022-11-26T15:05:18.399Z,14.40
2022-11-26T15:07:46.331Z,20.42
2022-11-26T15:10:15.712Z,18.13
2022-11-26T15:12:43.779Z,17.75
2022-11-26T15:15:18.737Z,19.10
2022-11-26T15:17:50.294Z,18.52
2022-11-26T15:20:18.855Z,18.13
2022-11-26T15:22:52.054Z,18.95
2022-11-26T15:25:21.628Z,24.83
2022-11-26T15:27:54.136Z,20.75
2022-11-26T15:30:24.033Z,20.17
2022-11-26T15:33:11.002Z,16.17
2022-11-26T15:35:39.784Z,17.73
2022-11-26T15:38:18.044Z,16.30
2022-11-26T15:40:51.616Z,17.48
2022-11-26T15:43:43.967Z,17.95
2022-11-26T15:46:10.608Z,28.27
2022-11-26T15:48:58.249Z,15.32
2022-11-26T15:51:33.742Z,21.25
2022-11-26T15:54:03.632Z,25.92
2022-11-26T15:56:39.318Z,39.40
2022-11-26T15:59:14.704Z,30.60
2022-11-26T16:01:44.981Z,23.42
2022-11-26T16:04:38.566Z,18.33
2022-11-26T16:07:11.177Z,21.05
2022-11-26T16:09:38.534Z,20.88
2022-11-26T16:12:05.496Z,30.75
2022-11-26T16:14:36.990Z,36.47
2022-11-26T16:19:36.494Z,28.35
2022-11-26T16:22:05.692Z,26.52
2022-11-26T16:24:39.959Z,19.15
2022-11-26T16:27:24.877Z,14.82
2022-11-26T16:29:51.752Z,18.90
2022-11-26T16:32:19.033Z,23.55
2022-11-26T16:34:46.027Z,19.30
2022-11-26T16:37:31.436Z,17.95
2022-11-26T16:40:04.120Z,19.65
2022-11-26T16:42:32.579Z,18.83
2022-11-26T16:45:03.881Z,14.82
2022-11-26T16:47:41.224Z,19.17
2022-11-26T16:50:19.790Z,25.15
2022-11-26T16:52:47.026Z,20.50
2022-11-26T16:55:19.588Z,17.05
2022-11-26T16:57:56.788Z,22.60
2022-11-26T17:00:26.145Z,27.50
2022-11-26T17:02:54.039Z,20.73
2022-11-26T17:05:21.488Z,22.52
2022-11-26T17:07:59.174Z,21.27
2022-11-26T17:10:29.269Z,26.23
2022-11-26T17:12:56.848Z,26.60
2022-11-26T17:15:23.726Z,27.10
2022-11-26T17:17:52.144Z,28.92
2022-11-26T17:20:25.435Z,19.40
2022-11-26T17:22:52.117Z,27.23
2022-11-26T17:25:19.491Z,28.42
2022-11-26T17:27:46.961Z,24.13
2022-11-26T17:30:23.265Z,21.63
2022-11-26T17:32:50.971Z,25.05
2022-11-26T17:35:18.163Z,21.80
2022-11-26T17:37:45.243Z,25.13
2022-11-26T17:40:21.198Z,21.50
2022-11-26T17:42:48.633Z,25.98
2022-11-26T17:45:16.192Z,25.80
2022-11-26T17:47:43.515Z,25.90
2022-11-26T17:50:20.809Z,29.67
2022-11-26T17:52:48.715Z,31.33
2022-11-26T17:55:16.486Z,39.03
2022-11-26T17:57:43.648Z,37.17
2022-11-26T18:00:21.952Z,30.17
2022-11-26T18:02:48.837Z,33.53
2022-11-26T18:05:15.702Z,34.15
2022-11-26T18:07:42.726Z,32.13
2022-11-26T18:10:15.765Z,26.58
2022-11-26T18:12:42.581Z,33.83
2022-11-26T18:15:15.816Z,29.73
2022-11-26T18:17:50.661Z,33.53
2022-11-26T18:20:19.696Z,29.60
2022-11-26T18:22:49.356Z,24.13
2022-11-26T18:25:16.020Z,24.95
2022-11-26T18:27:42.763Z,25.00
2022-11-26T18:30:09.902Z,30.85
2022-11-26T18:32:37.820Z,33.60
2022-11-26T18:35:05.711Z,31.65
2022-11-26T18:37:34.761Z,24.45
2022-11-26T18:40:01.774Z,27.00
2022-11-26T18:42:37.252Z,26.10
2022-11-26T18:45:06.835Z,29.83
2022-11-26T18:47:33.496Z,30.80
2022-11-26T18:50:00.232Z,24.70
2022-11-26T18:52:27.025Z,27.45
2022-11-26T18:54:53.797Z,26.92
2022-11-26T18:57:20.540Z,21.85
2022-11-26T18:59:47.301Z,23.90
2022-11-26T19:02:14.074Z,27.23
2022-11-26T19:04:41.258Z,27.17
2022-11-26T19:07:09.189Z,26.67
2022-11-26T19:09:37.705Z,28.75
2022-11-26T19:12:04.939Z,20.52
2022-11-26T19:14:31.998Z,22.13
2022-11-26T19:16:58.717Z,21.10
2022-11-26T19:19:27.337Z,29.45
2022-11-26T19:22:00.492Z,22.55
2022-11-26T19:24:28.566Z,18.92
2022-11-26T19:26:55.262Z,25.00
2022-11-26T19:29:22.005Z,22.38
2022-11-26T19:31:48.700Z,22.20
2022-11-26T19:34:16.084Z,19.83
2022-11-26T19:36:45.639Z,18.27
2022-11-26T19:39:12.632Z,19.65
2022-11-26T19:41:39.270Z,23.73
2022-11-26T19:44:07.136Z,28.77
2022-11-26T19:46:39.128Z,26.90
2022-11-26T19:49:06.212Z,22.88
2022-11-26T19:51:33.072Z,27.27
2022-11-26T19:53:59.877Z,21.88
2022-11-26T19:56:29.083Z,29.13
2022-11-26T19:59:00.144Z,27.25
2022-11-26T20:01:30.142Z,20.15
2022-11-26T20:04:01.933Z,20.92
2022-11-26T20:09:00.532Z,24.83
2022-11-26T20:11:28.580Z,26.77
2022-11-26T20:13:56.213Z,28.30
2022-11-26T20:16:26.018Z,29.85
2022-11-26T20:18:53.624Z,34.35
2022-11-26T20:21:26.085Z,40.45
2022-11-26T20:23:54.508Z,41.72
2022-11-26T20:26:25.211Z,46.45
2022-11-26T20:28:53.115Z,42.88
2022-11-26T20:31:23.581Z,35.35
2022-11-26T20:33:53.132Z,33.25
2022-11-26T20:36:22.713Z,24.85
2022-11-26T20:38:58.130Z,26.80
2022-11-26T20:41:29.154Z,25.70
2022-11-26T20:43:59.148Z,24.13
2022-11-26T20:46:27.157Z,22.92
2022-11-26T20:48:54.146Z,25.08
2022-11-26T20:51:22.260Z,18.60
2022-11-26T20:53:51.171Z,22.08
2022-11-26T20:56:22.224Z,22.52
2022-11-26T20:58:50.553Z,23.75
2022-11-26T21:01:23.093Z,21.98
2022-11-26T21:03:50.791Z,21.73
2022-11-26T21:06:22.366Z,21.88
2022-11-26T21:08:51.203Z,24.70
2022-11-26T21:11:18.078Z,23.50
2022-11-26T21:13:45.067Z,21.02
2022-11-26T21:16:16.335Z,19.33
2022-11-26T21:18:43.820Z,25.45
2022-11-26T21:21:12.691Z,33.13
2022-11-26T21:23:41.280Z,26.20
2022-11-26T21:26:10.167Z,22.42
2022-11-26T21:28:37.087Z,27.35
2022-11-26T21:31:08.696Z,28.17
2022-11-26T21:36:06.617Z,27.80
2022-11-26T21:38:33.655Z,51.28
2022-11-26T21:41:12.296Z,22.70
2022-11-26T21:43:39.862Z,26.60
2022-11-26T21:46:07.907Z,21.60
2022-11-26T21:48:37.438Z,24.80
2022-11-26T21:51:08.656Z,29.40
2022-11-26T21:53:35.440Z,22.60
2022-11-26T21:56:23.541Z,28.23
2022-11-26T21:58:50.876Z,28.20
2022-11-26T22:01:29.938Z,25.88
2022-11-26T22:04:00.462Z,26.95
2022-11-26T22:06:27.755Z,20.33
2022-11-26T22:08:55.438Z,35.63
2022-11-26T22:11:33.728Z,42.42
2022-11-26T22:14:00.308Z,27.48
2022-11-26T22:16:28.790Z,51.75
2022-11-26T22:18:56.573Z,36.53
2022-11-26T22:21:32.127Z,57.03
2022-11-26T22:24:00.563Z,25.73
2022-11-26T22:26:28.070Z,52.70
2022-11-26T22:28:55.651Z,32.97
2022-11-26T22:31:28.367Z,26.85
2022-11-26T22:33:57.186Z,28.15
2022-11-26T22:36:24.363Z,26.65
2022-11-26T22:38:51.224Z,21.13
2022-11-26T22:41:18.066Z,21.80
2022-11-26T22:43:44.806Z,23.23
2022-11-26T22:46:14.335Z,28.45
2022-11-26T22:48:41.859Z,25.48
2022-11-26T22:51:09.231Z,27.10
2022-11-26T22:53:36.647Z,22.63
2022-11-26T22:56:04.589Z,25.05
2022-11-26T22:58:33.618Z,27.73
2022-11-26T23:01:09.343Z,22.15
2022-11-26T23:03:37.263Z,27.92
2022-11-26T23:06:08.599Z,25.90
2022-11-26T23:08:36.495Z,22.83
2022-11-26T23:11:28.742Z,20.67
2022-11-26T23:13:56.346Z,20.75
2022-11-26T23:16:25.591Z,29.17
2022-11-26T23:18:54.861Z,24.60
2022-11-26T23:21:28.031Z,21.92
2022-11-26T23:23:55.450Z,31.13
2022-11-26T23:26:27.449Z,21.80
2022-11-26T23:28:55.914Z,27.60
2022-11-26T23:31:25.780Z,20.42
2022-11-26T23:33:53.320Z,22.08
2022-11-26T23:36:20.810Z,23.35
2022-11-26T23:38:47.728Z,22.65
2022-11-26T23:41:14.801Z,25.77
2022-11-26T23:43:41.984Z,29.73
2022-11-26T23:46:14.176Z,20.00
2022-11-26T23:48:41.412Z,34.65
2022-11-26T23:51:10.764Z,24.55
2022-11-26T23:53:39.425Z,19.55
2022-11-26T23:56:10.882Z,25.30
2022-11-26T23:58:37.834Z,26.00
